createdAt,value
2019-02-08T00:00:00.512Z,6.17
2019-02-08T00:03:06.609Z,6.21
2019-02-08T00:06:09.568Z,6.23
2019-02-08T00:09:14.453Z,6.25
2019-02-08T00:12:19.661Z,6.24
2019-02-08T00:15:22.133Z,6.24
2019-02-08T00:18:26.581Z,6.31
2019-02-08T00:21:29.183Z,6.29
2019-02-08T00:24:31.858Z,6.29
2019-02-08T00:27:34.543Z,6.36
2019-02-08T00:30:38.098Z,6.39
2019-02-08T00:33:40.806Z,6.27
2019-02-08T00:36:43.403Z,6.29
2019-02-08T00:39:46.080Z,6.38
2019-02-08T00:42:48.877Z,6.35
2019-02-08T00:45:51.924Z,6.35
2019-02-08T00:48:54.628Z,6.27
2019-02-08T00:51:57.456Z,6.27
2019-02-08T00:55:03.109Z,6.20
2019-02-08T00:58:05.953Z,6.37
2019-02-08T01:01:10.718Z,6.21
2019-02-08T01:04:13.236Z,6.15
2019-02-08T01:07:15.942Z,6.00
2019-02-08T01:10:21.807Z,6.14
2019-02-08T01:13:24.487Z,6.05
2019-02-08T01:16:27.051Z,5.97
2019-02-08T01:19:29.757Z,6.05
2019-02-08T01:22:32.708Z,6.10
2019-02-08T01:25:35.473Z,6.06
2019-02-08T01:28:38.263Z,6.05
2019-02-08T01:31:40.926Z,6.01
2019-02-08T01:34:43.577Z,5.95
2019-02-08T01:37:46.851Z,5.94
2019-02-08T01:40:49.496Z,5.92
2019-02-08T01:43:52.110Z,5.84
2019-02-08T01:46:56.557Z,5.83
2019-02-08T01:49:59.258Z,5.76
2019-02-08T01:53:02.012Z,5.85
2019-02-08T01:56:04.638Z,5.97
2019-02-08T01:59:07.216Z,6.02
2019-02-08T02:02:09.800Z,6.06
2019-02-08T02:05:14.785Z,6.13
2019-02-08T02:08:17.425Z,6.02
2019-02-08T02:11:20.044Z,6.02
2019-02-08T02:14:22.721Z,5.95
2019-02-08T02:17:25.402Z,5.95
2019-02-08T02:20:33.179Z,5.89
2019-02-08T02:23:36.101Z,5.85
2019-02-08T02:26:38.810Z,5.90
2019-02-08T02:29:41.436Z,5.97
2019-02-08T02:32:44.144Z,5.97
2019-02-08T02:35:46.916Z,5.97
2019-02-08T02:38:49.508Z,5.97
2019-02-08T02:41:52.248Z,5.94
2019-02-08T02:44:54.858Z,5.99
2019-02-08T02:47:57.521Z,5.99
2019-02-08T02:51:00.097Z,6.07
2019-02-08T02:54:04.910Z,6.04
2019-02-08T02:57:07.194Z,5.82
2019-02-08T03:00:13.898Z,5.74
2019-02-08T03:03:16.902Z,5.60
2019-02-08T03:06:19.532Z,5.56
2019-02-08T03:09:22.276Z,5.52
2019-02-08T03:12:24.841Z,5.54
2019-02-08T03:15:27.557Z,5.61
2019-02-08T03:18:30.164Z,5.75
2019-02-08T03:21:32.745Z,5.65
2019-02-08T03:24:35.468Z,5.66
2019-02-08T03:27:38.133Z,5.76
2019-02-08T03:31:00.301Z,5.68
2019-02-08T03:34:03.242Z,5.71
2019-02-08T03:37:05.916Z,5.85
2019-02-08T03:40:11.658Z,5.87
2019-02-08T03:43:14.577Z,5.90
2019-02-08T03:46:17.335Z,5.97
2019-02-08T03:49:20.005Z,5.92
2019-02-08T03:52:22.741Z,5.93
2019-02-08T03:55:25.591Z,5.95
2019-02-08T03:58:28.207Z,5.94
2019-02-08T04:01:30.908Z,5.85
2019-02-08T04:04:33.570Z,5.96
2019-02-08T04:07:36.181Z,5.81
2019-02-08T04:10:38.866Z,5.83
2019-02-08T04:13:41.647Z,5.85
2019-02-08T04:16:44.395Z,5.69
2019-02-08T04:19:47.155Z,5.59
2019-02-08T04:22:49.715Z,5.72
2019-02-08T04:25:52.461Z,5.77
2019-02-08T04:28:55.056Z,5.75
2019-02-08T04:31:57.723Z,5.80
2019-02-08T04:35:02.362Z,5.79
2019-02-08T04:38:04.931Z,5.84
2019-02-08T04:41:07.627Z,5.90
2019-02-08T04:44:10.340Z,5.76
2019-02-08T04:47:13.044Z,5.69
2019-02-08T04:50:18.056Z,5.72
2019-02-08T04:53:20.665Z,5.75
2019-02-08T04:56:23.231Z,5.79
2019-02-08T04:59:25.794Z,5.80
2019-02-08T05:02:28.551Z,5.72
2019-02-08T05:05:31.226Z,5.84
2019-02-08T05:08:33.878Z,5.78
2019-02-08T05:11:36.427Z,5.80
2019-02-08T05:14:41.170Z,5.78
2019-02-08T05:17:43.771Z,5.85
2019-02-08T05:20:46.433Z,5.81
2019-02-08T05:23:49.215Z,5.78
2019-02-08T05:26:51.915Z,5.77
2019-02-08T05:29:54.566Z,5.89
2019-02-08T05:32:57.331Z,5.85
2019-02-08T05:36:04.526Z,5.81
2019-02-08T05:39:09.415Z,5.75
2019-02-08T05:42:14.727Z,5.69
2019-02-08T05:45:17.588Z,5.70
2019-02-08T05:48:20.265Z,5.70
2019-02-08T05:51:22.842Z,5.66
2019-02-08T05:54:25.634Z,5.61
2019-02-08T05:57:29.103Z,5.68
2019-02-08T06:00:43.387Z,5.74
2019-02-08T06:03:45.953Z,5.56
2019-02-08T06:06:48.576Z,5.47
2019-02-08T06:09:51.373Z,5.37
2019-02-08T06:12:54.181Z,5.35
2019-02-08T06:15:56.865Z,5.34
2019-02-08T06:18:59.645Z,5.33
2019-02-08T06:22:02.202Z,5.37
2019-02-08T06:25:05.902Z,5.37
2019-02-08T06:28:08.504Z,5.35
2019-02-08T06:31:11.190Z,5.35
2019-02-08T06:34:13.788Z,5.39
2019-02-08T06:37:16.449Z,5.40
2019-02-08T06:40:21.051Z,5.39
2019-02-08T06:43:23.750Z,5.41
2019-02-08T06:46:26.386Z,5.45
2019-02-08T06:49:29.082Z,5.62
2019-02-08T06:52:31.773Z,5.55
2019-02-08T06:55:34.460Z,5.57
2019-02-08T06:58:41.583Z,5.59
2019-02-08T07:01:55.658Z,5.65
2019-02-08T07:05:30.008Z,5.65
2019-02-08T07:09:01.359Z,5.72
2019-02-08T07:12:36.789Z,5.77
2019-02-08T07:16:04.922Z,5.75
2019-02-08T07:19:30.005Z,5.81
2019-02-08T07:23:01.466Z,5.65
2019-02-08T07:26:21.742Z,5.67
2019-02-08T07:29:40.719Z,5.61
2019-02-08T07:33:00.254Z,5.64
2019-02-08T07:36:20.947Z,5.64
2019-02-08T07:39:45.326Z,5.59
2019-02-08T07:43:06.385Z,5.51
2019-02-08T07:46:28.628Z,5.54
2019-02-08T07:49:52.625Z,5.53
2019-02-08T07:53:33.076Z,5.66
2019-02-08T07:56:52.691Z,5.67
2019-02-08T08:00:06.033Z,5.70
2019-02-08T08:03:22.920Z,5.83
2019-02-08T08:06:54.023Z,5.84
2019-02-08T08:10:17.349Z,5.87
2019-02-08T08:13:47.969Z,6.05
2019-02-08T08:17:08.951Z,6.02
2019-02-08T08:20:34.964Z,6.13
2019-02-08T08:24:01.052Z,6.16
2019-02-08T08:27:26.232Z,6.17
2019-02-08T08:30:40.302Z,6.26
2019-02-08T08:33:57.199Z,6.30
2019-02-08T08:37:59.975Z,6.36
2019-02-08T08:41:42.391Z,6.31
2019-02-08T08:45:32.065Z,6.28
2019-02-08T08:49:04.721Z,6.30
2019-02-08T08:53:19.536Z,6.31
2019-02-08T08:57:25.081Z,6.41
2019-02-08T09:01:21.635Z,6.35
2019-02-08T09:04:55.108Z,6.43
2019-02-08T09:08:39.896Z,6.48
2019-02-08T09:12:45.795Z,6.55
2019-02-08T09:16:29.132Z,6.53
2019-02-08T09:20:10.901Z,6.64
2019-02-08T09:23:59.282Z,6.79
2019-02-08T09:27:40.856Z,6.93
2019-02-08T09:31:27.145Z,6.98
2019-02-08T09:34:49.869Z,7.05
2019-02-08T09:38:29.211Z,7.17
2019-02-08T09:42:08.404Z,7.07
2019-02-08T09:45:51.835Z,7.12
2019-02-08T09:49:21.629Z,7.08
2019-02-08T09:53:01.170Z,7.18
2019-02-08T09:56:36.701Z,7.27
2019-02-08T10:00:18.514Z,7.31
2019-02-08T10:04:12.190Z,7.38
2019-02-08T10:08:07.926Z,7.37
2019-02-08T10:11:37.295Z,7.56
2019-02-08T10:15:15.394Z,7.56
2019-02-08T10:19:21.545Z,7.73
2019-02-08T10:23:08.034Z,7.82
2019-02-08T10:26:57.754Z,7.79
2019-02-08T10:30:35.496Z,7.76
2019-02-08T10:34:25.400Z,7.77
2019-02-08T10:38:10.626Z,7.74
2019-02-08T10:41:49.906Z,7.67
2019-02-08T10:45:37.273Z,7.65
2019-02-08T10:49:27.591Z,7.67
2019-02-08T10:53:01.974Z,7.64
2019-02-08T10:56:42.459Z,7.50
2019-02-08T11:00:46.410Z,7.46
2019-02-08T11:04:39.683Z,7.58
2019-02-08T11:08:25.136Z,7.64
2019-02-08T11:12:08.371Z,7.67
2019-02-08T11:15:43.115Z,7.81
2019-02-08T11:19:16.831Z,7.92
2019-02-08T11:22:19.463Z,7.77
2019-02-08T11:25:22.068Z,8.17
2019-02-08T11:28:26.889Z,8.03
2019-02-08T11:31:29.498Z,8.03
2019-02-08T11:34:32.240Z,8.12
2019-02-08T11:37:34.929Z,8.14
2019-02-08T11:40:37.610Z,8.20
2019-02-08T11:43:40.238Z,8.24
2019-02-08T11:46:43.499Z,8.42
2019-02-08T11:49:46.046Z,8.32
2019-02-08T11:52:48.749Z,8.39
2019-02-08T11:55:51.301Z,8.41
2019-02-08T11:58:54.015Z,8.53
2019-02-08T12:01:56.621Z,8.67
2019-02-08T12:04:59.249Z,8.72
2019-02-08T12:08:02.016Z,8.53
2019-02-08T12:11:04.795Z,8.63
2019-02-08T12:14:07.685Z,8.62
2019-02-08T12:17:10.482Z,8.64
2019-02-08T12:20:13.296Z,8.71
2019-02-08T12:23:16.031Z,8.67
2019-02-08T12:26:18.714Z,8.80
2019-02-08T12:29:21.374Z,8.66
2019-02-08T12:32:23.985Z,8.62
2019-02-08T12:35:26.690Z,8.75
2019-02-08T12:38:29.439Z,8.91
2019-02-08T12:41:34.256Z,8.98
2019-02-08T12:44:36.910Z,8.92
2019-02-08T12:47:39.545Z,8.96
2019-02-08T12:50:42.265Z,9.01
2019-02-08T12:53:45.107Z,8.88
2019-02-08T12:56:47.930Z,8.95
2019-02-08T12:59:50.617Z,8.94
2019-02-08T13:02:53.316Z,8.74
2019-02-08T13:05:55.915Z,8.80
2019-02-08T13:08:58.905Z,8.88
2019-02-08T13:12:01.524Z,8.88
2019-02-08T13:15:05.879Z,8.81
2019-02-08T13:18:08.685Z,8.77
2019-02-08T13:21:11.369Z,8.75
2019-02-08T13:24:14.243Z,8.70
2019-02-08T13:27:16.965Z,8.62
2019-02-08T13:30:22.298Z,8.61
2019-02-08T13:33:25.969Z,8.57
2019-02-08T13:36:28.712Z,8.52
2019-02-08T13:39:31.346Z,8.62
2019-02-08T13:42:34.140Z,8.70
2019-02-08T13:45:36.966Z,8.62
2019-02-08T13:48:39.699Z,8.45
2019-02-08T13:51:42.420Z,8.67
2019-02-08T13:54:45.165Z,8.55
2019-02-08T13:57:47.945Z,8.57
2019-02-08T14:00:50.549Z,8.55
2019-02-08T14:03:53.316Z,8.74
2019-02-08T14:06:57.326Z,8.79
2019-02-08T14:10:00.223Z,8.75
2019-02-08T14:13:03.211Z,8.70
2019-02-08T14:16:06.429Z,8.82
2019-02-08T14:19:09.150Z,8.65
2019-02-08T14:22:11.950Z,9.00
2019-02-08T14:25:14.956Z,8.67
2019-02-08T14:28:17.651Z,9.04
2019-02-08T14:31:20.503Z,8.88
2019-02-08T14:34:23.173Z,9.03
2019-02-08T14:37:25.754Z,8.85
2019-02-08T14:40:28.684Z,8.52
2019-02-08T14:43:31.380Z,8.47
2019-02-08T14:46:33.980Z,8.62
2019-02-08T14:49:38.521Z,8.63
2019-02-08T14:52:41.404Z,8.43
2019-02-08T14:55:44.196Z,8.39
2019-02-08T14:58:46.944Z,8.49
2019-02-08T15:01:49.599Z,8.49
2019-02-08T15:04:52.319Z,8.66
2019-02-08T15:07:55.180Z,8.57
2019-02-08T15:10:57.859Z,8.46
2019-02-08T15:14:00.593Z,8.27
2019-02-08T15:17:03.364Z,8.27
2019-02-08T15:20:09.704Z,8.19
2019-02-08T15:23:12.448Z,8.45
2019-02-08T15:26:15.084Z,8.56
2019-02-08T15:29:17.729Z,8.35
2019-02-08T15:32:20.478Z,8.42
2019-02-08T15:35:24.443Z,8.38
2019-02-08T15:38:27.268Z,8.52
2019-02-08T15:41:29.986Z,8.42
2019-02-08T15:44:32.614Z,8.45
2019-02-08T15:47:35.448Z,8.36
2019-02-08T15:50:38.173Z,8.41
2019-02-08T15:53:40.885Z,8.36
2019-02-08T15:56:43.565Z,8.23
2019-02-08T15:59:46.252Z,8.21
2019-02-08T16:02:49.150Z,8.33
2019-02-08T16:05:51.804Z,8.27
2019-02-08T16:08:54.455Z,8.18
2019-02-08T16:11:57.084Z,8.24
2019-02-08T16:14:59.740Z,8.23
2019-02-08T16:18:02.335Z,8.41
2019-02-08T16:21:05.099Z,8.35
2019-02-08T16:24:07.920Z,8.36
2019-02-08T16:27:10.758Z,8.33
2019-02-08T16:30:18.786Z,8.29
2019-02-08T16:33:21.521Z,8.20
2019-02-08T16:36:24.155Z,8.24
2019-02-08T16:39:26.879Z,8.23
2019-02-08T16:42:29.708Z,8.21
2019-02-08T16:45:33.349Z,8.30
2019-02-08T16:48:35.975Z,8.18
2019-02-08T16:51:38.609Z,8.21
2019-02-08T16:54:41.361Z,8.24
2019-02-08T16:57:47.865Z,8.27
2019-02-08T17:00:49.815Z,8.27
2019-02-08T17:03:52.510Z,8.31
2019-02-08T17:06:55.364Z,8.36
2019-02-08T17:09:58.041Z,8.41
2019-02-08T17:13:00.754Z,8.23
2019-02-08T17:16:05.426Z,8.21
2019-02-08T17:19:08.073Z,8.22
2019-02-08T17:22:10.956Z,8.26
2019-02-08T17:25:13.688Z,8.28
2019-02-08T17:28:16.305Z,8.24
2019-02-08T17:31:19.008Z,8.35
2019-02-08T17:34:22.626Z,8.33
2019-02-08T17:37:25.264Z,8.36
2019-02-08T17:40:29.989Z,8.31
2019-02-08T17:43:33.998Z,8.39
2019-02-08T17:46:36.604Z,8.26
2019-02-08T17:49:39.563Z,8.27
2019-02-08T17:52:42.353Z,8.19
2019-02-08T17:55:45.105Z,8.21
2019-02-08T17:58:47.914Z,8.30
2019-02-08T18:01:50.660Z,8.22
2019-02-08T18:04:53.245Z,8.16
2019-02-08T18:07:55.959Z,8.32
2019-02-08T18:10:58.581Z,8.30
2019-02-08T18:14:01.243Z,8.39
2019-02-08T18:17:03.978Z,8.44
2019-02-08T18:20:11.431Z,8.27
2019-02-08T18:23:14.063Z,8.17
2019-02-08T18:26:16.709Z,8.18
2019-02-08T18:29:19.411Z,8.17
2019-02-08T18:32:22.150Z,8.21
2019-02-08T18:35:24.912Z,8.34
2019-02-08T18:38:27.659Z,8.17
2019-02-08T18:41:30.408Z,8.21
2019-02-08T18:44:32.979Z,8.17
2019-02-08T18:47:35.727Z,8.20
2019-02-08T18:50:43.978Z,8.23
2019-02-08T18:53:46.678Z,8.20
2019-02-08T18:56:49.446Z,8.28
2019-02-08T18:59:52.098Z,8.27
2019-02-08T19:02:54.908Z,8.20
2019-02-08T19:05:57.537Z,8.17
2019-02-08T19:09:00.283Z,8.24
2019-02-08T19:12:02.917Z,8.27
2019-02-08T19:15:06.679Z,8.24
2019-02-08T19:18:10.309Z,8.35
2019-02-08T19:21:12.979Z,8.41
2019-02-08T19:24:15.746Z,8.41
2019-02-08T19:27:18.373Z,8.34
2019-02-08T19:30:23.786Z,8.27
2019-02-08T19:33:26.577Z,8.38
2019-02-08T19:36:29.283Z,8.41
2019-02-08T19:39:33.988Z,8.43
2019-02-08T19:42:36.632Z,8.45
2019-02-08T19:45:39.243Z,8.30
2019-02-08T19:48:41.935Z,8.39
2019-02-08T19:51:45.459Z,8.59
2019-02-08T19:54:48.414Z,8.50
2019-02-08T19:57:51.027Z,8.56
2019-02-08T20:00:55.776Z,8.46
2019-02-08T20:03:58.305Z,8.47
2019-02-08T20:07:01.042Z,8.43
2019-02-08T20:10:06.746Z,8.52
2019-02-08T20:13:09.485Z,8.49
2019-02-08T20:16:13.206Z,8.49
2019-02-08T20:19:15.779Z,8.49
2019-02-08T20:22:18.448Z,8.77
2019-02-08T20:25:23.972Z,8.64
2019-02-08T20:28:26.603Z,8.81
2019-02-08T20:31:29.263Z,8.62
2019-02-08T20:34:31.898Z,8.48
2019-02-08T20:37:34.657Z,8.62
2019-02-08T20:40:39.545Z,8.48
2019-02-08T20:43:42.198Z,8.59
2019-02-08T20:46:44.775Z,8.52
2019-02-08T20:49:47.494Z,8.59
2019-02-08T20:52:51.592Z,8.50
2019-02-08T20:55:54.651Z,8.49
2019-02-08T20:58:57.205Z,8.58
2019-02-08T21:01:59.903Z,8.50
2019-02-08T21:05:02.954Z,8.56
2019-02-08T21:08:06.567Z,8.64
2019-02-08T21:11:10.084Z,8.51
2019-02-08T21:14:12.755Z,8.47
2019-02-08T21:17:15.419Z,8.55
2019-02-08T21:20:18.301Z,8.53
2019-02-08T21:23:21.102Z,8.55
2019-02-08T21:26:23.853Z,8.55
2019-02-08T21:29:26.468Z,8.56
2019-02-08T21:32:29.153Z,8.52
2019-02-08T21:35:32.763Z,8.56
2019-02-08T21:38:35.653Z,8.56
2019-02-08T21:41:38.369Z,8.60
2019-02-08T21:44:41.097Z,8.64
2019-02-08T21:47:43.734Z,8.47
2019-02-08T21:50:48.593Z,8.45
2019-02-08T21:53:52.328Z,8.48
2019-02-08T21:56:55.018Z,8.43
2019-02-08T21:59:57.720Z,8.50
2019-02-08T22:03:01.560Z,8.51
2019-02-08T22:06:08.319Z,8.46
2019-02-08T22:09:10.995Z,8.59
2019-02-08T22:12:14.635Z,8.55
2019-02-08T22:15:20.155Z,8.51
2019-02-08T22:18:22.878Z,8.51
2019-02-08T22:21:26.757Z,8.58
2019-02-08T22:24:29.469Z,8.81
2019-02-08T22:27:32.508Z,8.58
2019-02-08T22:30:37.453Z,8.62
2019-02-08T22:33:40.153Z,8.60
2019-02-08T22:36:42.767Z,8.57
2019-02-08T22:39:45.656Z,8.60
2019-02-08T22:42:48.543Z,8.50
2019-02-08T22:45:51.399Z,8.53
2019-02-08T22:48:54.588Z,8.60
2019-02-08T22:51:57.295Z,8.48
2019-02-08T22:54:59.949Z,8.58
2019-02-08T22:58:03.166Z,8.61
2019-02-08T23:01:28.797Z,8.74
2019-02-08T23:04:31.402Z,8.67
2019-02-08T23:07:34.165Z,8.62
2019-02-08T23:10:37.502Z,8.52
2019-02-08T23:13:41.153Z,8.60
2019-02-08T23:16:43.791Z,8.72
2019-02-08T23:19:47.534Z,8.87
2019-02-08T23:22:50.178Z,8.70
2019-02-08T23:25:52.834Z,8.65
2019-02-08T23:28:55.602Z,8.74
2019-02-08T23:31:58.252Z,8.64
2019-02-08T23:35:01.047Z,8.63
2019-02-08T23:38:03.873Z,8.74
2019-02-08T23:41:06.579Z,8.85
2019-02-08T23:44:10.105Z,8.66
2019-02-08T23:47:12.862Z,8.75
2019-02-08T23:50:15.777Z,8.81
2019-02-08T23:53:18.565Z,8.82
2019-02-08T23:56:22.499Z,8.65
2019-02-08T23:59:25.352Z,8.65
